createdAt,value
2018-04-16T00:00:52.420Z,6.63
2018-04-16T00:03:20.147Z,6.47
2018-04-16T00:05:47.806Z,5.63
2018-04-16T00:08:15.325Z,5.63
2018-04-16T00:10:44.762Z,5.10
2018-04-16T00:13:12.745Z,5.63
2018-04-16T00:15:41.003Z,6.37
2018-04-16T00:18:09.987Z,5.77
2018-04-16T00:20:37.469Z,6.80
2018-04-16T00:23:06.419Z,7.07
2018-04-16T00:25:34.124Z,7.13
2018-04-16T00:28:02.381Z,5.57
2018-04-16T00:30:29.847Z,7.67
2018-04-16T00:33:03.117Z,8.03
2018-04-16T00:35:36.415Z,8.57
2018-04-16T00:38:09.606Z,8.40
2018-04-16T00:40:43.140Z,8.70
2018-04-16T00:43:16.970Z,7.87
2018-04-16T00:45:50.171Z,7.77
2018-04-16T00:48:23.242Z,7.30
2018-04-16T00:50:56.651Z,6.70
2018-04-16T00:53:42.554Z,5.87
2018-04-16T00:56:15.776Z,6.20
2018-04-16T00:58:49.067Z,6.33
2018-04-16T01:01:22.216Z,6.97
2018-04-16T01:03:56.002Z,7.37
2018-04-16T01:06:29.938Z,6.37
2018-04-16T01:09:03.292Z,7.57
2018-04-16T01:14:16.346Z,8.77
2018-04-16T01:16:50.333Z,8.80
2018-04-16T01:19:23.512Z,9.50
2018-04-16T01:21:56.822Z,9.70
2018-04-16T01:24:29.933Z,9.90
2018-04-16T01:27:03.147Z,8.93
2018-04-16T01:29:37.025Z,8.20
2018-04-16T01:32:10.928Z,7.93
2018-04-16T01:34:44.925Z,7.27
2018-04-16T01:37:18.122Z,7.23
2018-04-16T01:39:51.294Z,9.00
2018-04-16T01:42:24.576Z,8.40
2018-04-16T01:44:58.276Z,10.63
2018-04-16T01:47:31.590Z,11.77
2018-04-16T01:50:04.780Z,10.37
2018-04-16T01:52:37.974Z,11.00
2018-04-16T01:55:11.094Z,12.23
2018-04-16T01:57:44.200Z,16.07
2018-04-16T02:00:17.403Z,14.47
2018-04-16T02:02:50.643Z,11.00
2018-04-16T02:05:24.203Z,12.50
2018-04-16T02:07:57.378Z,14.90
2018-04-16T02:10:30.571Z,11.80
2018-04-16T02:13:03.922Z,13.90
2018-04-16T02:15:37.116Z,12.57
2018-04-16T02:18:10.962Z,12.83
2018-04-16T02:20:44.126Z,12.00
2018-04-16T02:23:18.011Z,13.17
2018-04-16T02:28:55.956Z,11.93
2018-04-16T02:31:29.795Z,13.40
2018-04-16T02:34:02.926Z,12.17
2018-04-16T02:36:36.110Z,11.50
2018-04-16T02:39:09.317Z,12.73
2018-04-16T02:41:42.560Z,11.90
2018-04-16T02:44:15.866Z,12.30
2018-04-16T02:46:49.115Z,10.57
2018-04-16T02:49:22.952Z,11.10
2018-04-16T02:51:56.083Z,11.77
2018-04-16T02:54:29.387Z,13.63
2018-04-16T03:00:07.496Z,14.63
2018-04-16T03:02:40.520Z,11.63
2018-04-16T03:05:14.558Z,11.47
2018-04-16T03:07:47.881Z,11.97
2018-04-16T03:10:21.149Z,11.10
2018-04-16T03:12:54.155Z,10.03
2018-04-16T03:18:30.350Z,10.10
2018-04-16T03:21:03.503Z,9.43
2018-04-16T03:23:36.614Z,13.40
2018-04-16T03:26:09.772Z,14.83
2018-04-16T03:28:42.980Z,15.47
2018-04-16T03:31:16.088Z,16.80
2018-04-16T03:33:49.250Z,16.97
2018-04-16T03:36:22.657Z,16.10
2018-04-16T03:38:56.240Z,14.90
2018-04-16T03:41:29.576Z,17.10
2018-04-16T03:44:02.824Z,16.23
2018-04-16T03:46:36.037Z,17.83
2018-04-16T03:49:09.084Z,17.67
2018-04-16T03:54:44.697Z,31.27
2018-04-16T03:57:12.598Z,26.73
2018-04-16T03:59:40.064Z,20.63
2018-04-16T04:02:08.280Z,16.20
2018-04-16T04:04:35.739Z,16.97
2018-04-16T04:07:09.820Z,15.93
2018-04-16T04:09:38.495Z,20.60
2018-04-16T04:12:06.729Z,17.60
2018-04-16T04:14:34.729Z,15.30
2018-04-16T04:17:03.056Z,13.53
2018-04-16T04:19:30.497Z,13.20
2018-04-16T04:21:57.951Z,15.33
2018-04-16T04:24:37.361Z,19.13
2018-04-16T04:27:16.848Z,21.90
2018-04-16T04:29:56.272Z,22.77
2018-04-16T04:32:23.720Z,22.40
2018-04-16T04:34:51.177Z,20.83
2018-04-16T04:37:18.635Z,21.67
2018-04-16T04:39:46.091Z,22.50
2018-04-16T04:42:14.112Z,22.77
2018-04-16T04:44:41.575Z,24.53
2018-04-16T04:47:09.043Z,21.47
2018-04-16T04:49:36.547Z,20.37
2018-04-16T04:52:04.025Z,17.03
2018-04-16T04:54:31.476Z,16.30
2018-04-16T04:56:59.613Z,18.07
2018-04-16T04:59:28.476Z,15.87
2018-04-16T05:01:55.931Z,15.33
2018-04-16T05:04:23.380Z,15.87
2018-04-16T05:06:51.223Z,16.83
2018-04-16T05:09:18.664Z,18.83
2018-04-16T05:11:46.164Z,25.53
2018-04-16T05:14:13.622Z,21.87
2018-04-16T05:16:41.063Z,17.00
2018-04-16T05:19:08.522Z,15.87
2018-04-16T05:21:38.400Z,13.97
2018-04-16T05:24:05.869Z,12.80
2018-04-16T05:26:33.734Z,12.60
2018-04-16T05:29:01.187Z,12.03
2018-04-16T05:31:28.640Z,12.23
2018-04-16T05:33:56.132Z,14.30
2018-04-16T05:36:23.595Z,15.70
2018-04-16T05:38:51.372Z,18.23
2018-04-16T05:41:18.824Z,14.80
2018-04-16T05:43:46.274Z,13.90
2018-04-16T05:46:13.737Z,15.00
2018-04-16T05:48:41.197Z,13.80
2018-04-16T05:51:08.671Z,15.10
2018-04-16T05:53:36.884Z,15.83
2018-04-16T05:56:04.344Z,15.83
2018-04-16T05:58:31.812Z,17.87
2018-04-16T06:00:59.280Z,22.47
2018-04-16T06:03:26.731Z,24.90
2018-04-16T06:05:54.332Z,24.13
2018-04-16T06:08:22.546Z,22.63
2018-04-16T06:10:49.998Z,22.53
2018-04-16T06:13:18.014Z,17.53
2018-04-16T06:15:45.463Z,12.10
2018-04-16T06:18:12.940Z,6.43
2018-04-16T06:20:41.188Z,7.60
2018-04-16T06:23:08.648Z,6.87
2018-04-16T06:25:36.105Z,6.60
2018-04-16T06:28:03.780Z,6.23
2018-04-16T06:30:32.296Z,6.10
2018-04-16T06:33:00.504Z,5.43
2018-04-16T06:35:27.964Z,4.90
2018-04-16T06:37:55.435Z,5.50
2018-04-16T06:40:22.988Z,5.63
2018-04-16T06:42:52.252Z,6.22
2018-04-16T06:45:19.745Z,5.50
2018-04-16T06:47:47.612Z,5.85
2018-04-16T06:50:15.083Z,6.30
2018-04-16T06:52:42.529Z,5.95
2018-04-16T06:55:10.237Z,4.97
2018-04-16T06:57:37.747Z,3.90
2018-04-16T07:00:05.785Z,4.05
2018-04-16T07:02:33.336Z,4.00
2018-04-16T07:05:00.790Z,3.70
2018-04-16T07:07:29.122Z,3.62
2018-04-16T07:09:56.656Z,2.90
2018-04-16T07:12:24.143Z,3.10
2018-04-16T07:14:51.595Z,3.33
2018-04-16T07:17:19.655Z,2.30
2018-04-16T07:19:47.137Z,2.30
2018-04-16T07:22:15.360Z,2.37
2018-04-16T07:24:42.857Z,2.50
2018-04-16T07:27:10.501Z,2.62
2018-04-16T07:29:38.032Z,2.70
2018-04-16T07:32:05.477Z,2.53
2018-04-16T07:34:33.519Z,2.40
2018-04-16T07:37:02.017Z,2.22
2018-04-16T07:39:30.612Z,1.90
2018-04-16T07:41:58.052Z,1.92
2018-04-16T07:44:25.522Z,2.00
2018-04-16T07:46:53.783Z,2.40
2018-04-16T07:49:21.992Z,2.05
2018-04-16T07:51:49.436Z,2.28
2018-04-16T07:54:16.936Z,2.00
2018-04-16T07:56:44.682Z,2.30
2018-04-16T07:59:12.156Z,2.10
2018-04-16T08:01:39.609Z,1.75
2018-04-16T08:04:07.072Z,1.92
2018-04-16T08:06:35.354Z,2.15
2018-04-16T08:09:02.772Z,2.50
2018-04-16T08:11:31.232Z,2.60
2018-04-16T08:13:58.742Z,2.33
2018-04-16T08:16:26.194Z,2.37
2018-04-16T08:18:53.644Z,2.40
2018-04-16T08:21:21.132Z,2.28
2018-04-16T08:23:48.663Z,2.30
2018-04-16T08:26:16.134Z,2.00
2018-04-16T08:28:43.581Z,2.85
2018-04-16T08:31:11.048Z,2.37
2018-04-16T08:33:38.600Z,2.62
2018-04-16T08:36:06.043Z,2.65
2018-04-16T08:38:33.612Z,2.33
2018-04-16T08:41:01.329Z,2.42
2018-04-16T08:43:28.786Z,2.80
2018-04-16T08:45:56.292Z,2.62
2018-04-16T08:48:24.223Z,2.50
2018-04-16T08:50:51.944Z,2.62
2018-04-16T08:53:19.490Z,2.72
2018-04-16T08:55:46.946Z,3.92
2018-04-16T08:58:15.029Z,2.75
2018-04-16T09:00:44.500Z,2.45
2018-04-16T09:03:14.388Z,2.42
2018-04-16T09:05:41.849Z,2.17
2018-04-16T09:08:09.307Z,2.05
2018-04-16T09:10:36.760Z,2.37
2018-04-16T09:13:04.226Z,2.45
2018-04-16T09:15:31.674Z,2.40
2018-04-16T09:17:59.134Z,2.95
2018-04-16T09:20:26.692Z,2.10
2018-04-16T09:22:54.387Z,1.92
2018-04-16T09:25:22.121Z,2.58
2018-04-16T09:27:49.563Z,2.50
2018-04-16T09:30:17.547Z,2.92
2018-04-16T09:32:45.000Z,2.90
2018-04-16T09:35:12.967Z,2.78
2018-04-16T09:37:41.008Z,2.30
2018-04-16T09:40:09.236Z,2.90
2018-04-16T09:42:36.689Z,2.25
2018-04-16T09:45:04.384Z,2.80
2018-04-16T09:47:34.475Z,2.22
2018-04-16T09:50:02.488Z,2.87
2018-04-16T09:52:30.699Z,2.85
2018-04-16T09:54:58.584Z,2.25
2018-04-16T09:57:26.050Z,2.20
2018-04-16T09:59:53.620Z,2.55
2018-04-16T10:02:25.047Z,2.65
2018-04-16T10:04:52.908Z,2.22
2018-04-16T10:07:20.645Z,2.25
2018-04-16T10:09:48.095Z,1.70
2018-04-16T10:12:15.568Z,3.30
2018-04-16T10:14:43.080Z,4.93
2018-04-16T10:17:11.817Z,2.30
2018-04-16T10:19:39.269Z,2.12
2018-04-16T10:22:06.777Z,1.50
2018-04-16T10:24:38.662Z,2.17
2018-04-16T10:27:06.901Z,1.75
2018-04-16T10:29:34.353Z,2.35
2018-04-16T10:32:08.476Z,1.90
2018-04-16T10:34:35.931Z,1.95
2018-04-16T10:37:03.844Z,2.35
2018-04-16T10:39:31.302Z,2.33
2018-04-16T10:41:59.192Z,2.00
2018-04-16T10:44:26.681Z,2.28
2018-04-16T10:46:54.146Z,2.05
2018-04-16T10:49:21.597Z,2.08
2018-04-16T10:51:49.098Z,2.10
2018-04-16T10:54:16.847Z,2.00
2018-04-16T10:56:45.084Z,2.10
2018-04-16T10:59:12.639Z,2.42
2018-04-16T11:01:40.923Z,2.50
2018-04-16T11:04:08.911Z,2.15
2018-04-16T11:06:40.924Z,2.30
2018-04-16T11:09:08.384Z,2.83
2018-04-16T11:11:35.872Z,2.97
2018-04-16T11:14:04.092Z,2.58
2018-04-16T11:16:31.664Z,2.58
2018-04-16T11:18:59.188Z,2.50
2018-04-16T11:21:27.866Z,2.10
2018-04-16T11:23:55.308Z,2.05
2018-04-16T11:26:22.792Z,2.25
2018-04-16T11:28:51.004Z,1.92
2018-04-16T11:31:18.453Z,1.90
2018-04-16T11:33:45.909Z,2.10
2018-04-16T11:36:13.409Z,1.70
2018-04-16T11:38:40.872Z,1.90
2018-04-16T11:41:08.316Z,2.10
2018-04-16T11:43:35.784Z,1.37
2018-04-16T11:46:03.238Z,1.80
2018-04-16T11:48:31.610Z,1.90
2018-04-16T11:50:59.076Z,2.10
2018-04-16T11:53:26.648Z,1.60
2018-04-16T11:55:54.104Z,1.80
2018-04-16T11:58:21.645Z,1.37
2018-04-16T12:00:49.144Z,1.70
2018-04-16T12:03:17.357Z,1.50
2018-04-16T12:05:45.350Z,1.70
2018-04-16T12:08:12.910Z,1.73
2018-04-16T12:10:40.368Z,1.87
2018-04-16T12:13:09.367Z,1.35
2018-04-16T12:15:37.576Z,1.30
2018-04-16T12:18:05.032Z,1.40
2018-04-16T12:20:32.653Z,1.30
2018-04-16T12:23:00.295Z,1.40
2018-04-16T12:25:28.429Z,1.08
2018-04-16T12:27:57.075Z,1.23
2018-04-16T12:30:24.534Z,0.90
2018-04-16T12:32:52.019Z,1.27
2018-04-16T12:35:20.241Z,1.10
2018-04-16T12:37:47.715Z,1.30
2018-04-16T12:40:15.172Z,1.10
2018-04-16T12:42:42.741Z,1.30
2018-04-16T12:45:10.301Z,1.08
2018-04-16T12:47:38.191Z,1.37
2018-04-16T12:50:06.444Z,1.40
2018-04-16T12:52:33.891Z,1.20
2018-04-16T12:55:01.369Z,1.00
2018-04-16T12:57:31.511Z,1.17
2018-04-16T12:59:59.030Z,1.10
2018-04-16T13:02:26.475Z,1.10
2018-04-16T13:04:53.928Z,1.50
2018-04-16T13:07:21.384Z,0.85
2018-04-16T13:09:48.868Z,1.23
2018-04-16T13:12:16.327Z,2.83
2018-04-16T13:14:43.803Z,21.98
2018-04-16T13:17:12.050Z,4.32
2018-04-16T13:19:39.651Z,1.92
2018-04-16T13:22:07.924Z,1.30
2018-04-16T13:24:35.440Z,1.52
2018-04-16T13:27:02.888Z,1.30
2018-04-16T13:29:31.287Z,1.25
2018-04-16T13:31:58.738Z,1.25
2018-04-16T13:34:26.824Z,1.05
2018-04-16T13:36:54.278Z,1.10
2018-04-16T13:39:21.735Z,1.10
2018-04-16T13:41:49.495Z,1.27
2018-04-16T13:44:16.947Z,1.20
2018-04-16T13:46:44.516Z,0.80
2018-04-16T13:49:13.300Z,1.30
2018-04-16T13:51:41.224Z,1.40
2018-04-16T13:54:09.600Z,1.17
2018-04-16T13:56:37.442Z,1.52
2018-04-16T13:59:05.656Z,1.80
2018-04-16T14:01:33.166Z,1.52
2018-04-16T14:04:01.387Z,1.45
2018-04-16T14:06:28.897Z,1.30
2018-04-16T14:08:57.136Z,1.25
2018-04-16T14:11:24.695Z,1.10
2018-04-16T14:13:52.248Z,1.20
2018-04-16T14:16:20.336Z,1.20
2018-04-16T14:18:47.783Z,1.30
2018-04-16T14:21:15.343Z,1.12
2018-04-16T14:23:42.788Z,1.12
2018-04-16T14:26:10.244Z,0.90
2018-04-16T14:28:37.698Z,0.90
2018-04-16T14:31:05.147Z,1.30
2018-04-16T14:33:33.139Z,1.00
2018-04-16T14:36:00.621Z,1.00
2018-04-16T14:38:28.634Z,0.88
2018-04-16T14:40:56.124Z,1.05
2018-04-16T14:43:23.589Z,0.90
2018-04-16T14:45:51.035Z,0.95
2018-04-16T14:48:18.496Z,1.23
2018-04-16T14:50:45.940Z,1.12
2018-04-16T14:53:13.424Z,1.20
2018-04-16T14:55:40.880Z,1.12
2018-04-16T14:58:08.424Z,1.10
2018-04-16T15:00:35.899Z,1.58
2018-04-16T15:03:03.432Z,1.25
2018-04-16T15:05:30.911Z,1.00
2018-04-16T15:07:58.365Z,0.93
2018-04-16T15:10:25.816Z,1.08
2018-04-16T15:12:53.829Z,0.82
2018-04-16T15:15:22.016Z,1.23
2018-04-16T15:17:49.935Z,1.00
2018-04-16T15:20:17.477Z,1.40
2018-04-16T15:22:45.537Z,1.08
2018-04-16T15:25:13.002Z,1.10
2018-04-16T15:27:40.469Z,1.00
2018-04-16T15:30:07.912Z,1.10
2018-04-16T15:32:35.368Z,1.08
2018-04-16T15:35:02.834Z,1.00
2018-04-16T15:37:30.704Z,1.00
2018-04-16T15:39:58.262Z,0.95
2018-04-16T15:42:25.714Z,0.90
2018-04-16T15:44:53.271Z,1.20
2018-04-16T15:47:21.112Z,1.15
2018-04-16T15:49:48.599Z,1.58
2018-04-16T15:52:16.060Z,1.62
2018-04-16T15:54:43.622Z,1.30
2018-04-16T15:57:11.081Z,1.08
2018-04-16T15:59:38.527Z,0.93
2018-04-16T16:02:05.987Z,1.20
2018-04-16T16:04:33.447Z,1.67
2018-04-16T16:07:00.904Z,1.20
2018-04-16T16:09:28.460Z,1.00
2018-04-16T16:11:56.019Z,1.00
2018-04-16T16:14:26.075Z,1.00
2018-04-16T16:16:54.316Z,1.10
2018-04-16T16:19:21.755Z,1.30
2018-04-16T16:21:50.444Z,1.10
2018-04-16T16:24:17.913Z,1.40
2018-04-16T16:26:45.370Z,0.90
2018-04-16T16:29:12.823Z,1.27
2018-04-16T16:31:41.102Z,1.08
2018-04-16T16:34:08.564Z,1.50
2018-04-16T16:36:36.036Z,1.25
2018-04-16T16:39:04.256Z,1.12
2018-04-16T16:41:31.708Z,1.30
2018-04-16T16:44:01.095Z,1.60
2018-04-16T16:46:28.624Z,1.00
2018-04-16T16:48:56.163Z,0.90
2018-04-16T16:51:23.650Z,1.08
2018-04-16T16:53:52.476Z,1.00
2018-04-16T16:56:19.984Z,0.93
2018-04-16T16:58:47.439Z,1.20
2018-04-16T17:01:14.996Z,1.20
2018-04-16T17:03:43.023Z,1.10
2018-04-16T17:06:10.903Z,1.25
2018-04-16T17:08:38.484Z,1.27
2018-04-16T17:11:05.936Z,1.30
2018-04-16T17:13:33.432Z,0.95
2018-04-16T17:16:01.663Z,1.20
2018-04-16T17:18:29.112Z,1.50
2018-04-16T17:20:56.681Z,1.30
2018-04-16T17:23:24.145Z,1.40
2018-04-16T17:25:52.005Z,1.33
2018-04-16T17:28:19.472Z,1.23
2018-04-16T17:30:47.008Z,1.17
2018-04-16T17:33:14.608Z,1.12
2018-04-16T17:35:42.351Z,1.17
2018-04-16T17:38:09.792Z,1.23
2018-04-16T17:40:37.263Z,1.00
2018-04-16T17:43:06.512Z,1.40
2018-04-16T17:45:34.081Z,1.50
2018-04-16T17:48:01.961Z,1.85
2018-04-16T17:50:29.483Z,1.40
2018-04-16T17:52:57.714Z,1.83
2018-04-16T17:55:25.165Z,1.67
2018-04-16T17:57:52.614Z,1.40
2018-04-16T18:00:20.147Z,1.47
2018-04-16T18:02:47.567Z,1.50
2018-04-16T18:05:15.104Z,1.30
2018-04-16T18:07:42.637Z,1.30
2018-04-16T18:10:10.132Z,1.27
2018-04-16T18:12:37.675Z,1.30
2018-04-16T18:15:05.123Z,1.20
2018-04-16T18:17:32.900Z,1.50
2018-04-16T18:20:00.349Z,1.50
2018-04-16T18:22:27.824Z,1.27
2018-04-16T18:24:55.559Z,1.40
2018-04-16T18:27:23.016Z,1.70
2018-04-16T18:29:50.532Z,1.60
2018-04-16T18:32:18.755Z,1.60
2018-04-16T18:34:46.203Z,1.27
2018-04-16T18:37:13.651Z,1.60
2018-04-16T18:39:41.102Z,1.40
2018-04-16T18:42:08.596Z,1.70
2018-04-16T18:44:36.060Z,1.80
2018-04-16T18:47:03.536Z,1.87
2018-04-16T18:49:31.231Z,1.50
2018-04-16T18:51:58.731Z,1.80
2018-04-16T18:54:26.365Z,1.60
2018-04-16T18:56:54.668Z,1.63
2018-04-16T18:59:22.116Z,1.60
2018-04-16T19:01:49.588Z,1.73
2018-04-16T19:04:17.141Z,1.73
2018-04-16T19:06:45.539Z,1.97
2018-04-16T19:09:13.087Z,2.00
2018-04-16T19:11:40.989Z,1.70
2018-04-16T19:14:09.232Z,1.60
2018-04-16T19:16:37.219Z,1.90
2018-04-16T19:19:04.747Z,2.43
2018-04-16T19:21:38.840Z,2.00
2018-04-16T19:24:06.752Z,1.53
2018-04-16T19:26:34.211Z,2.37
2018-04-16T19:29:01.661Z,1.80
2018-04-16T19:31:29.108Z,2.03
2018-04-16T19:34:02.326Z,2.13
2018-04-16T19:36:31.332Z,2.50
2018-04-16T19:38:59.952Z,2.40
2018-04-16T19:41:27.405Z,2.20
2018-04-16T19:43:54.883Z,2.47
2018-04-16T19:46:22.340Z,2.33
2018-04-16T19:48:56.532Z,2.47
2018-04-16T19:51:24.381Z,2.57
2018-04-16T19:53:52.210Z,2.30
2018-04-16T19:56:25.738Z,2.40
2018-04-16T19:58:53.218Z,2.20
2018-04-16T20:01:21.631Z,2.30
2018-04-16T20:03:55.817Z,3.00
2018-04-16T20:06:23.281Z,2.30
2018-04-16T20:08:51.113Z,2.13
2018-04-16T20:11:19.336Z,1.93
2018-04-16T20:13:46.899Z,2.37
2018-04-16T20:16:14.355Z,2.50
2018-04-16T20:18:41.813Z,2.23
2018-04-16T20:21:09.721Z,2.60
2018-04-16T20:23:37.961Z,1.90
2018-04-16T20:26:05.416Z,2.00
2018-04-16T20:28:32.872Z,2.63
2018-04-16T20:31:00.324Z,2.30
2018-04-16T20:33:27.789Z,2.17
2018-04-16T20:35:55.244Z,2.27
2018-04-16T20:38:22.803Z,2.50
2018-04-16T20:40:50.257Z,2.10
2018-04-16T20:43:18.131Z,2.80
2018-04-16T20:45:46.066Z,2.17
2018-04-16T20:48:13.527Z,2.30
2018-04-16T20:50:41.380Z,2.30
2018-04-16T20:53:09.363Z,2.33
2018-04-16T20:55:36.822Z,2.67
2018-04-16T20:58:04.280Z,2.43
2018-04-16T21:00:31.732Z,2.23
2018-04-16T21:02:59.191Z,2.40
2018-04-16T21:05:26.665Z,2.53
2018-04-16T21:07:54.528Z,2.60
2018-04-16T21:10:22.091Z,2.30
2018-04-16T21:12:49.540Z,2.47
2018-04-16T21:15:17.320Z,2.40
2018-04-16T21:17:44.900Z,2.20
2018-04-16T21:20:12.663Z,2.33
2018-04-16T21:22:40.111Z,2.17
2018-04-16T21:25:07.908Z,2.40
2018-04-16T21:27:35.675Z,2.33
2018-04-16T21:30:03.133Z,2.43
2018-04-16T21:32:30.650Z,3.30
2018-04-16T21:34:58.875Z,3.57
2018-04-16T21:37:26.746Z,2.97
2018-04-16T21:39:54.192Z,2.87
2018-04-16T21:42:21.660Z,2.87
2018-04-16T21:44:49.109Z,3.27
2018-04-16T21:47:17.052Z,3.03
2018-04-16T21:49:46.111Z,3.37
2018-04-16T21:52:14.102Z,3.50
2018-04-16T21:54:41.564Z,3.33
2018-04-16T21:57:09.020Z,3.63
2018-04-16T21:59:38.068Z,3.43
2018-04-16T22:02:05.560Z,3.37
2018-04-16T22:04:33.107Z,3.73
2018-04-16T22:07:00.868Z,3.80
2018-04-16T22:09:28.328Z,3.50
2018-04-16T22:11:55.930Z,3.90
2018-04-16T22:14:24.156Z,3.03
2018-04-16T22:16:52.048Z,3.10
2018-04-16T22:19:19.931Z,3.83
2018-04-16T22:21:48.169Z,3.47
2018-04-16T22:24:16.108Z,3.90
2018-04-16T22:26:43.568Z,3.40
2018-04-16T22:29:11.026Z,3.30
2018-04-16T22:31:38.888Z,4.00
2018-04-16T22:34:07.076Z,3.93
2018-04-16T22:36:34.704Z,3.90
2018-04-16T22:39:02.355Z,3.80
2018-04-16T22:41:30.572Z,3.90
2018-04-16T22:43:58.026Z,4.07
2018-04-16T22:46:25.470Z,4.33
2018-04-16T22:48:52.970Z,4.17
2018-04-16T22:51:21.144Z,4.07
2018-04-16T22:53:49.017Z,4.23
2018-04-16T22:56:16.464Z,4.30
2018-04-16T22:58:43.913Z,3.93
2018-04-16T23:01:11.363Z,4.30
2018-04-16T23:03:39.775Z,4.00
2018-04-16T23:06:07.223Z,4.07
2018-04-16T23:08:34.915Z,4.13
2018-04-16T23:11:03.367Z,4.37
2018-04-16T23:13:30.812Z,3.90
2018-04-16T23:15:58.266Z,4.50
2018-04-16T23:18:25.980Z,4.50
2018-04-16T23:20:55.296Z,4.53
2018-04-16T23:23:22.968Z,4.77
2018-04-16T23:25:50.999Z,4.50
2018-04-16T23:28:19.781Z,4.50
2018-04-16T23:30:47.308Z,4.93
2018-04-16T23:33:14.868Z,5.17
2018-04-16T23:35:42.328Z,5.07
2018-04-16T23:38:09.795Z,5.50
2018-04-16T23:40:38.149Z,5.40
2018-04-16T23:43:08.064Z,5.40
2018-04-16T23:45:36.461Z,4.60
2018-04-16T23:48:04.340Z,6.07
2018-04-16T23:50:31.814Z,5.93
2018-04-16T23:53:00.444Z,6.17
2018-04-16T23:55:27.936Z,5.03
2018-04-16T23:57:55.484Z,5.20
